Time;durP1;ratioP1;P1;durP2;ratioP2;P2;SDS_P1;SDS_P2;PMS_P1;PMS_P2;Temp;Humidity;BMP_temperature;BMP_pressure;BME280_temperature;BME280_humidity;BME280_pressure;Samples;Min_cycle;Max_cycle;Signal;HPM_P1;HPM_P2
2023/10/13 00:01:47;;;;;;;25.92;4.75;;;;;;;-144.73;100.00;54510.31;4972496;28;20022;-72
2023/10/13 00:04:12;;;;;;;24.50;4.75;;;;;;;-144.73;100.00;54539.06;4971623;28;20029;-72
2023/10/13 00:06:37;;;;;;;19.17;4.65;;;;;;;-144.73;100.00;54563.69;4972891;28;20027;-72
2023/10/13 00:09:04;;;;;;;27.35;4.50;;;;;;;-144.73;100.00;54567.81;4972175;28;20061;-72
2023/10/13 00:11:29;;;;;;;16.55;4.00;;;;;;;-144.73;100.00;54576.00;4989557;28;20500;-71
2023/10/13 00:13:54;;;;;;;23.45;5.15;;;;;;;-144.73;100.00;54555.47;4990323;28;20026;-72
2023/10/13 00:16:21;;;;;;;23.40;4.75;;;;;;;-144.73;100.00;54580.13;4989599;28;20107;-72
2023/10/13 00:18:48;;;;;;;29.38;5.35;;;;;;;-144.73;100.00;54567.81;4972410;28;20032;-72
2023/10/13 00:21:33;;;;;;;35.17;5.80;;;;;;;-144.73;100.00;54612.97;4972070;28;20034;-72
2023/10/13 00:24:06;;;;;;;25.05;5.13;;;;;;;-144.73;100.00;54520.59;4989764;28;20022;-72
2023/10/13 00:26:36;;;;;;;29.67;5.47;;;;;;;-144.73;100.00;54547.28;4972431;28;20038;-72
2023/10/13 00:31:33;;;;;;;31.17;5.97;;;;;;;-144.73;100.00;54580.13;4989168;28;20046;-72
2023/10/13 00:34:47;;;;;;;22.52;5.47;;;;;;;-144.73;100.00;54625.28;4990012;28;20026;-72
2023/10/13 00:39:36;;;;;;;27.27;5.68;;;;;;;-144.73;100.00;54586.28;4989642;28;20163;-72
2023/10/13 00:42:06;;;;;;;23.77;6.63;;;;;;;-144.73;100.00;54596.53;4988582;28;20026;-72
2023/10/13 00:44:41;;;;;;;27.55;7.28;;;;;;;-144.73;100.00;54576.00;4971854;28;20030;-72
2023/10/13 00:47:10;;;;;;;32.35;7.75;;;;;;;-144.73;100.00;54615.00;4988366;28;20172;-73
2023/10/13 00:49:39;;;;;;;34.30;7.40;;;;;;;-144.73;100.00;54586.28;4971931;28;20058;-73
2023/10/13 00:52:10;;;;;;;35.10;8.13;;;;;;;-144.73;100.00;54584.22;4972215;28;20115;-73
2023/10/13 00:54:37;;;;;;;29.92;7.70;;;;;;;-144.73;100.00;54576.00;4989285;28;20044;-73
2023/10/13 00:57:26;;;;;;;44.63;9.00;;;;;;;-144.73;100.00;54547.28;4972766;28;20045;-73
2023/10/13 00:59:53;;;;;;;38.38;9.63;;;;;;;-144.73;100.00;54588.31;4964575;28;20038;-73
2023/10/13 01:02:37;;;;;;;57.05;10.25;;;;;;;-144.73;100.00;54604.75;4969988;28;20115;-73
2023/10/13 01:05:09;;;;;;;51.67;10.13;;;;;;;-144.73;100.00;54571.91;4970168;28;20034;-73
2023/10/13 01:07:37;;;;;;;37.97;11.25;;;;;;;-144.73;100.00;54608.84;4953252;28;20030;-73
2023/10/13 01:10:13;;;;;;;36.75;9.82;;;;;;;-144.73;100.00;54551.38;4952134;28;20034;-73
2023/10/13 01:12:38;;;;;;;37.75;9.50;;;;;;;-144.73;100.00;54580.13;4952807;28;20034;-73
2023/10/13 01:15:04;;;;;;;46.80;11.88;;;;;;;-144.73;100.00;54563.69;4956994;28;20045;-73
2023/10/13 01:17:33;;;;;;;50.70;11.18;;;;;;;-144.73;100.00;54584.22;4958942;28;20111;-73
2023/10/13 01:19:59;;;;;;;35.90;11.45;;;;;;;-144.73;100.00;54635.53;4976061;28;20035;-72
2023/10/13 01:22:27;;;;;;;56.85;12.60;;;;;;;-144.73;100.00;54584.22;4975867;28;20031;-72
2023/10/13 01:25:04;;;;;;;42.80;12.38;;;;;;;-144.73;100.00;54602.69;4958584;28;20038;-73
2023/10/13 01:27:29;;;;;;;42.58;12.23;;;;;;;-144.73;100.00;54592.44;4959454;28;20436;-72
2023/10/13 01:30:05;;;;;;;49.05;14.50;;;;;;;-144.73;100.00;54559.59;4958381;28;20112;-72
2023/10/13 01:32:31;;;;;;;47.25;14.73;;;;;;;-144.73;100.00;54563.69;4959208;28;20023;-72
2023/10/13 01:34:57;;;;;;;48.83;14.73;;;;;;;-144.73;100.00;54604.75;4959106;28;20042;-72
2023/10/13 01:37:23;;;;;;;53.30;14.75;;;;;;;-144.73;100.00;54539.06;4958710;28;20022;-72
2023/10/13 01:39:49;;;;;;;64.07;15.95;;;;;;;-144.73;100.00;54557.53;4958444;28;20035;-73
2023/10/13 01:42:21;;;;;;;71.15;15.65;;;;;;;-144.73;100.00;54592.44;4958971;28;20031;-73
2023/10/13 01:44:47;;;;;;;54.83;15.25;;;;;;;-144.73;100.00;54567.81;4958555;28;20107;-73
2023/10/13 01:47:12;;;;;;;52.05;15.57;;;;;;;-144.73;100.00;54551.38;4958673;28;20110;-73
2023/10/13 01:49:47;;;;;;;58.92;15.68;;;;;;;-144.73;100.00;54588.31;4958269;28;20046;-73
2023/10/13 01:52:16;;;;;;;58.90;14.82;;;;;;;-144.73;100.00;54586.28;4959242;28;20054;-73
2023/10/13 01:54:46;;;;;;;65.80;15.18;;;;;;;-144.73;100.00;54557.53;4958495;28;20027;-73
2023/10/13 01:57:17;;;;;;;50.88;15.75;;;;;;;-144.73;100.00;54559.59;4959055;28;20027;-73
2023/10/13 01:59:47;;;;;;;60.40;16.77;;;;;;;-144.73;100.00;54612.97;4975452;28;20019;-73
2023/10/13 02:02:14;;;;;;;63.10;16.38;;;;;;;-144.73;100.00;54567.81;4976079;28;20030;-73
2023/10/13 02:04:48;;;;;;;60.53;17.48;;;;;;;-144.73;100.00;54600.63;4958039;28;20176;-73
2023/10/13 02:07:15;;;;;;;52.80;17.45;;;;;;;-144.73;100.00;54584.22;4958581;28;20026;-73
2023/10/13 02:09:42;;;;;;;53.60;17.50;;;;;;;-144.73;100.00;54547.28;4957760;28;20031;-73
2023/10/13 02:12:09;;;;;;;61.75;17.73;;;;;;;-144.73;100.00;54559.59;4958641;28;20038;-73
2023/10/13 02:14:36;;;;;;;77.65;19.42;;;;;;;-144.73;100.00;54604.75;4975084;28;20039;-73
2023/10/13 02:17:16;;;;;;;67.80;19.48;;;;;;;-144.73;100.00;54578.06;4958240;28;20023;-73
2023/10/13 02:19:45;;;;;;;77.13;19.85;;;;;;;-144.73;100.00;54588.31;4958022;28;20038;-73
2023/10/13 02:22:31;;;;;;;80.47;18.73;;;;;;;-144.73;100.00;54608.84;4958427;28;20026;-73
2023/10/13 02:25:05;;;;;;;70.45;20.65;;;;;;;-144.73;100.00;54559.59;4974850;28;20038;-73
2023/10/13 02:27:40;;;;;;;79.80;21.02;;;;;;;-144.73;100.00;54600.63;4954930;28;20027;-73
2023/10/13 02:30:12;;;;;;;74.75;21.02;;;;;;;-144.73;100.00;54580.13;4955062;28;20039;-73
2023/10/13 02:32:40;;;;;;;74.57;22.17;;;;;;;-144.73;100.00;54580.13;4955540;28;20037;-73
2023/10/13 02:35:09;;;;;;;81.75;22.65;;;;;;;-144.73;100.00;54596.53;4955151;28;20042;-72
2023/10/13 02:37:35;;;;;;;74.78;21.80;;;;;;;-144.73;100.00;54608.84;4955264;28;20034;-73
2023/10/13 02:40:01;;;;;;;64.03;20.90;;;;;;;-144.73;100.00;54592.44;4971454;28;20035;-72
2023/10/13 02:42:28;;;;;;;77.97;23.08;;;;;;;-144.73;100.00;54612.97;4954915;28;20070;-72
2023/10/13 02:44:57;;;;;;;76.97;23.50;;;;;;;-144.73;100.00;54592.44;4970878;28;20127;-73
2023/10/13 02:47:24;;;;;;;97.40;25.10;;;;;;;-144.73;100.00;54567.81;4972275;28;20043;-72
2023/10/13 02:49:49;;;;;;;87.32;24.60;;;;;;;-144.73;100.00;54596.53;4954892;28;20035;-73
2023/10/13 02:52:15;;;;;;;82.90;23.83;;;;;;;-144.73;100.00;54557.53;4955370;28;20041;-73
2023/10/13 02:54:50;;;;;;;86.88;26.70;;;;;;;-144.73;100.00;54580.13;4954767;28;20129;-73
2023/10/13 02:57:17;;;;;;;85.80;25.75;;;;;;;-144.73;100.00;54617.06;4955485;28;20041;-71
2023/10/13 02:59:46;;;;;;;83.78;24.38;;;;;;;-144.73;100.00;54592.44;4955024;28;20039;-73
2023/10/13 03:02:29;;;;;;;91.43;26.40;;;;;;;-144.73;100.00;54594.47;4954917;28;20046;-73
2023/10/13 03:05:09;;;;;;;97.93;27.60;;;;;;;-144.73;100.00;54604.75;4970529;28;20031;-73
2023/10/13 03:07:42;;;;;;;91.15;28.40;;;;;;;-144.73;100.00;54584.22;4954686;28;20027;-73
2023/10/13 03:10:11;;;;;;;94.05;27.02;;;;;;;-144.73;100.00;54563.69;4971576;28;20037;-73
2023/10/13 03:12:37;;;;;;;96.53;30.30;;;;;;;-144.73;100.00;54584.22;4954525;28;20037;-73
2023/10/13 03:15:49;;;;;;;93.60;29.58;;;;;;;-144.73;100.00;54580.13;4954261;28;20046;-73
2023/10/13 03:17:49;;;;;;;103.43;31.33;;;;;;;-144.73;100.00;54600.63;4961375;28;20062;-72
2023/10/13 03:20:22;;;;;;;90.43;27.95;;;;;;;-144.73;100.00;54551.38;4971457;28;20536;-73
2023/10/13 03:22:47;;;;;;;87.95;28.20;;;;;;;-144.73;100.00;54578.06;4954777;28;20030;-73
2023/10/13 03:28:13;;;;;;;95.55;28.92;;;;;;;-144.73;100.00;54596.53;4955350;28;20046;-73
2023/10/13 03:30:41;;;;;;;94.75;29.10;;;;;;;-144.73;100.00;54576.00;4973853;28;20047;-73
2023/10/13 03:33:09;;;;;;;93.82;32.08;;;;;;;-144.73;100.00;54580.13;4973759;28;20105;-72
2023/10/13 03:35:42;;;;;;;99.10;30.83;;;;;;;-144.73;100.00;54596.53;4990307;28;20038;-73
2023/10/13 03:38:17;;;;;;;100.30;30.73;;;;;;;-144.73;100.00;54604.75;4973070;28;20084;-73
2023/10/13 03:40:49;;;;;;;88.13;27.80;;;;;;;-144.73;100.00;54571.91;4979315;28;20065;-74
2023/10/13 03:43:21;;;;;;;80.57;25.08;;;;;;;-144.73;100.00;54571.91;4978313;28;20050;-75
2023/10/13 03:46:12;;;;;;;85.35;27.27;;;;;;;-144.73;100.00;54600.63;4960363;28;20066;-75
2023/10/13 03:48:52;;;;;;;68.10;21.90;;;;;;;-144.73;100.00;54555.47;4985610;28;20053;-74
2023/10/13 03:51:18;;;;;;;64.82;22.63;;;;;;;-144.73;100.00;54600.63;4981275;28;20035;-74
2023/10/13 03:53:52;;;;;;;71.18;22.95;;;;;;;-144.73;100.00;54594.47;4980984;28;20046;-74
2023/10/13 03:56:28;;;;;;;74.90;24.13;;;;;;;-144.73;100.00;54608.84;4966022;28;20031;-74
2023/10/13 03:58:58;;;;;;;67.65;22.38;;;;;;;-144.73;100.00;54584.22;4963822;28;20030;-73
2023/10/13 04:04:12;;;;;;;66.93;22.13;;;;;;;-144.73;100.00;54580.13;4988802;28;20022;-73
2023/10/13 04:17:26;;;;;;;81.93;25.70;;;;;;;-144.73;100.00;54625.28;5024751;28;20052;-78
2023/10/13 04:36:16;;;;;;;162.60;41.50;;;;;;;-144.73;100.00;54590.38;4978883;28;20062;-76
2023/10/13 04:41:43;;;;;;;157.55;40.50;;;;;;;-144.73;100.00;54604.75;4983256;28;20043;-76
2023/10/13 04:49:28;;;;;;;170.02;44.05;;;;;;;-144.73;100.00;54627.31;4985152;28;20156;-78
2023/10/13 04:57:34;;;;;;;141.77;40.38;;;;;;;-144.73;100.00;54576.00;4996277;28;20015;-78
2023/10/13 06:29:57;;;;;;;138.38;57.85;;;;;;;-144.73;100.00;54600.63;4981459;28;20081;-77
2023/10/13 06:32:26;;;;;;;135.68;56.83;;;;;;;-144.73;100.00;54604.75;4964159;28;20022;-75
2023/10/13 06:34:58;;;;;;;119.47;51.72;;;;;;;-144.73;100.00;54596.53;4963972;28;20039;-75
2023/10/13 06:37:32;;;;;;;154.43;61.05;;;;;;;-144.73;100.00;54594.47;4973926;28;20022;-74
2023/10/13 06:40:07;;;;;;;148.35;60.13;;;;;;;-144.73;100.00;54619.13;4964724;28;20031;-74
2023/10/13 06:42:42;;;;;;;120.50;57.30;;;;;;;-144.73;100.00;54576.00;5008168;28;20022;-74
2023/10/13 06:45:08;;;;;;;160.63;63.17;;;;;;;-144.73;100.00;54592.44;4963905;28;20056;-74
2023/10/13 06:47:42;;;;;;;146.40;60.72;;;;;;;-144.73;100.00;54600.63;5000708;28;20022;-73
2023/10/13 06:50:24;;;;;;;143.90;60.25;;;;;;;-144.73;100.00;54596.53;4994629;28;20035;-73
2023/10/13 06:52:50;;;;;;;;;;;;;;;-144.73;100.00;54600.63;4961984;28;20062;-73
2023/10/13 06:55:27;;;;;;;131.65;62.08;;;;;;;-144.73;100.00;54592.44;5005188;28;19967;-72
2023/10/13 06:57:53;;;;;;;117.72;53.83;;;;;;;-144.73;100.00;54612.97;4968891;28;20114;-71
2023/10/13 07:00:34;;;;;;;144.32;63.85;;;;;;;-144.73;100.00;54592.44;4974092;28;20064;-72
2023/10/13 07:03:06;;;;;;;161.15;66.82;;;;;;;-144.73;100.00;54617.06;4979076;28;20118;-72
2023/10/13 07:05:41;;;;;;;153.27;66.97;;;;;;;-144.73;100.00;54551.38;4960062;28;20037;-72
2023/10/13 07:08:08;;;;;;;115.18;57.67;;;;;;;-144.73;100.00;54580.13;4989783;28;20022;-73
2023/10/13 07:11:01;;;;;;;133.00;61.28;;;;;;;-144.73;100.00;54617.06;5019997;28;20030;-73
2023/10/13 07:13:28;;;;;;;142.15;65.53;;;;;;;-144.73;100.00;54580.13;4968874;28;20082;-73
2023/10/13 07:15:59;;;;;;;139.25;63.38;;;;;;;-144.73;100.00;54588.31;4980243;28;20038;-73
2023/10/13 07:18:25;;;;;;;199.73;74.45;;;;;;;-144.73;100.00;54600.63;4994236;28;20162;-72
2023/10/13 07:20:52;;;;;;;116.40;57.15;;;;;;;-144.73;100.00;54563.69;4974881;28;20039;-73
2023/10/13 07:23:17;;;;;;;112.18;59.60;;;;;;;-144.73;100.00;54600.63;4985664;28;20026;-73
2023/10/13 07:25:54;;;;;;;127.32;61.22;;;;;;;-144.73;100.00;54571.91;4974706;28;20035;-73
2023/10/13 07:28:20;;;;;;;148.07;65.63;;;;;;;-144.73;100.00;54580.13;4962378;28;20023;-74
2023/10/13 07:33:21;;;;;;;179.50;73.32;;;;;;;-144.73;100.00;54559.59;4990283;28;20022;-73
2023/10/13 07:35:50;;;;;;;131.95;64.15;;;;;;;-144.73;100.00;54588.31;4983851;28;20060;-73
2023/10/13 07:38:16;;;;;;;142.82;64.28;;;;;;;-144.73;100.00;54584.22;4971096;28;20084;-72
2023/10/13 07:40:50;;;;;;;130.60;59.70;;;;;;;-144.73;100.00;54610.91;4973593;28;20050;-72
2023/10/13 07:43:20;;;;;;;130.27;61.85;;;;;;;-144.73;100.00;54580.13;4968708;28;20400;-72
2023/10/13 07:45:51;;;;;;;143.38;64.05;;;;;;;-144.73;100.00;54625.28;4974925;28;20045;-72
2023/10/13 07:48:20;;;;;;;128.10;58.90;;;;;;;-144.73;100.00;54580.13;4961772;28;20073;-72
2023/10/13 07:50:47;;;;;;;152.27;64.55;;;;;;;-144.73;100.00;54621.16;4973195;28;20034;-72
2023/10/13 07:53:24;;;;;;;144.30;62.47;;;;;;;-144.73;100.00;54633.47;4981026;28;20113;-71
2023/10/13 07:56:02;;;;;;;108.05;55.25;;;;;;;-144.73;100.00;54600.63;4968486;28;20042;-72
2023/10/13 07:58:28;;;;;;;92.43;49.38;;;;;;;-144.73;100.00;54596.53;4965042;28;20022;-72
2023/10/13 08:01:06;;;;;;;97.50;50.70;;;;;;;-144.73;100.00;54637.59;4968773;28;20394;-68
2023/10/13 08:03:44;;;;;;;96.15;50.55;;;;;;;-144.73;100.00;54596.53;4974850;28;20088;-68
2023/10/13 08:08:43;;;;;;;85.53;48.72;;;;;;;-144.73;100.00;54588.31;4986724;28;20026;-68
2023/10/13 08:11:11;;;;;;;90.35;46.80;;;;;;;-144.73;100.00;54588.31;4956963;28;20050;-66
2023/10/13 08:13:47;;;;;;;97.00;47.63;;;;;;;-144.73;100.00;54649.91;4963431;28;20037;-68
2023/10/13 08:16:22;;;;;;;93.93;45.05;;;;;;;-144.73;100.00;54623.22;4986213;28;20409;-68
2023/10/13 08:18:52;;;;;;;77.80;42.50;;;;;;;-144.73;100.00;54608.84;4957298;28;20030;-68
2023/10/13 08:21:31;;;;;;;63.15;36.63;;;;;;;-144.73;100.00;54563.69;4965105;28;20028;-67
2023/10/13 08:23:59;;;;;;;66.07;38.47;;;;;;;-144.73;100.00;54643.75;4955770;28;20022;-68
2023/10/13 08:26:32;;;;;;;71.13;40.90;;;;;;;-144.73;100.00;54621.16;4958596;28;20504;-68
2023/10/13 08:32:13;;;;;;;67.93;36.90;;;;;;;-144.73;100.00;54580.13;5013046;28;20181;-68
2023/10/13 08:35:22;;;;;;;65.38;35.72;;;;;;;-144.73;100.00;54604.75;4997272;28;20126;-69
2023/10/13 08:45:20;;;;;;;62.47;34.40;;;;;;;-144.73;100.00;54563.69;4974913;28;20047;-69
2023/10/13 08:53:31;;;;;;;53.47;31.75;;;;;;;-144.73;100.00;54600.63;4984000;28;20026;-69
2023/10/13 08:56:15;;;;;;;66.15;32.75;;;;;;;-144.73;100.00;54600.63;4956888;28;20035;-69
2023/10/13 09:15:06;;;;;;;43.58;23.75;;;;;;;-144.73;100.00;54576.00;4992768;28;20046;-68
2023/10/13 09:17:41;;;;;;;35.28;22.65;;;;;;;-144.73;100.00;54645.78;5009743;28;20130;-70
2023/10/13 09:25:34;;;;;;;26.75;17.98;;;;;;;-144.73;100.00;54590.38;4982014;28;20035;-70
2023/10/13 09:28:18;;;;;;;27.73;18.10;;;;;;;-144.73;100.00;54600.63;4978209;28;20026;-69
2023/10/13 09:30:52;;;;;;;23.33;16.10;;;;;;;-144.73;100.00;54606.78;4991246;28;20052;-69
2023/10/13 09:33:32;;;;;;;23.40;13.43;;;;;;;-144.73;100.00;54578.06;4985301;28;20023;-70
2023/10/13 09:35:59;;;;;;;25.52;14.45;;;;;;;-144.73;100.00;54584.22;4966917;28;20034;-70
2023/10/13 09:38:28;;;;;;;27.65;15.13;;;;;;;-144.73;100.00;54584.22;4970737;28;20034;-71
2023/10/13 09:40:57;;;;;;;21.80;12.90;;;;;;;-144.73;100.00;54637.59;4981630;28;20035;-71
2023/10/13 09:43:25;;;;;;;17.30;8.80;;;;;;;-144.73;100.00;54561.63;4972176;28;20018;-70
2023/10/13 09:46:07;;;;;;;18.85;8.18;;;;;;;-144.73;100.00;54600.63;4980224;28;20090;-70
2023/10/13 09:48:35;;;;;;;15.00;8.38;;;;;;;-144.73;100.00;54600.63;4977781;28;20049;-70
2023/10/13 09:51:10;;;;;;;14.25;7.35;;;;;;;-144.73;100.00;54578.06;4982674;28;20066;-70
2023/10/13 09:53:39;;;;;;;19.45;7.35;;;;;;;-144.73;100.00;54612.97;4971620;28;20062;-71
2023/10/13 09:56:19;;;;;;;18.50;7.20;;;;;;;-144.73;100.00;54615.00;4962122;28;20046;-70
2023/10/13 09:58:57;;;;;;;17.75;7.70;;;;;;;-144.73;100.00;54561.63;4970752;28;20031;-68
2023/10/13 10:01:33;;;;;;;16.38;8.23;;;;;;;-144.73;100.00;54584.22;4987863;28;20038;-67
2023/10/13 10:04:08;;;;;;;24.00;8.20;;;;;;;-144.73;100.00;54612.97;4984777;28;20030;-68
2023/10/13 10:06:45;;;;;;;19.95;8.25;;;;;;;-144.73;100.00;54612.97;4992608;28;20035;-69
2023/10/13 10:09:15;;;;;;;25.73;7.85;;;;;;;-144.73;100.00;54578.06;4997058;28;20023;-69
2023/10/13 10:11:46;;;;;;;19.88;7.57;;;;;;;-144.73;100.00;54633.47;4985905;28;20025;-69
2023/10/13 10:14:41;;;;;;;21.23;7.57;;;;;;;-144.73;100.00;54610.91;4964566;28;20031;-69
2023/10/13 10:17:08;;;;;;;16.48;7.97;;;;;;;-144.73;100.00;54606.78;4988832;28;20026;-70
2023/10/13 10:19:48;;;;;;;18.73;8.45;;;;;;;-144.73;100.00;54580.13;4971221;28;20361;-71
2023/10/13 10:22:16;;;;;;;18.77;7.90;;;;;;;-144.73;100.00;54625.28;4970488;28;20050;-72
2023/10/13 10:24:43;;;;;;;21.52;9.50;;;;;;;-144.73;100.00;54615.00;4960040;28;20063;-72
2023/10/13 10:27:15;;;;;;;24.45;9.05;;;;;;;-144.73;100.00;54563.69;4978668;28;21247;-70
2023/10/13 10:29:54;;;;;;;19.48;8.10;;;;;;;-144.73;100.00;54604.75;4963043;28;20039;-71
2023/10/13 10:32:19;;;;;;;20.23;8.10;;;;;;;-144.73;100.00;54635.53;4962624;28;20030;-72
2023/10/13 10:34:44;;;;;;;17.23;8.95;;;;;;;-144.73;100.00;54592.44;4967336;28;20083;-71
2023/10/13 10:37:12;;;;;;;21.20;9.20;;;;;;;-144.73;100.00;54547.28;4968405;28;20038;-71
2023/10/13 10:39:46;;;;;;;20.98;9.98;;;;;;;-144.73;100.00;54588.31;4966655;28;20038;-71
2023/10/13 10:42:17;;;;;;;26.13;8.93;;;;;;;-144.73;100.00;54637.59;4964789;28;20051;-70
2023/10/13 10:44:43;;;;;;;19.58;8.98;;;;;;;-144.73;100.00;54621.16;4972573;28;20057;-71
2023/10/13 10:47:19;;;;;;;21.17;8.80;;;;;;;-144.73;100.00;54625.28;4983803;28;20023;-68
2023/10/13 10:49:47;;;;;;;18.13;8.27;;;;;;;-144.73;100.00;54617.06;4972071;28;20027;-68
2023/10/13 10:52:20;;;;;;;22.35;10.90;;;;;;;-144.73;100.00;54608.84;4970729;28;20026;-68
2023/10/13 10:54:59;;;;;;;28.17;10.60;;;;;;;-144.73;100.00;54617.06;4979268;28;20034;-68
2023/10/13 10:57:28;;;;;;;19.98;8.15;;;;;;;-144.73;100.00;54549.31;4965747;28;20057;-68
2023/10/13 11:00:10;;;;;;;23.63;9.50;;;;;;;-144.73;100.00;54606.78;4985586;28;20053;-68
2023/10/13 11:02:39;;;;;;;16.23;9.27;;;;;;;-144.73;100.00;54584.22;5033712;28;20133;-68
2023/10/13 11:05:09;;;;;;;23.83;9.55;;;;;;;-144.73;100.00;54610.91;4983012;28;20114;-67
2023/10/13 11:07:35;;;;;;;26.30;10.23;;;;;;;-144.73;100.00;54625.28;4971484;28;20036;-67
2023/10/13 11:10:17;;;;;;;19.88;9.02;;;;;;;-144.73;100.00;54563.69;4986665;28;20038;-69
2023/10/13 11:12:54;;;;;;;28.02;8.70;;;;;;;-144.73;100.00;54571.91;4983672;28;20038;-69
2023/10/13 11:15:22;;;;;;;23.20;9.18;;;;;;;-144.73;100.00;54582.16;4968211;28;20050;-68
2023/10/13 11:17:54;;;;;;;27.02;9.88;;;;;;;-144.73;100.00;54584.22;4969775;28;20064;-67
2023/10/13 11:20:43;;;;;;;19.67;8.77;;;;;;;-144.73;100.00;54606.78;4967945;28;20038;-68
2023/10/13 11:23:13;;;;;;;15.32;8.90;;;;;;;-144.73;100.00;54604.75;4971783;28;20027;-67
2023/10/13 11:25:39;;;;;;;21.00;8.88;;;;;;;-144.73;100.00;54584.22;4968044;28;20035;-68
2023/10/13 11:28:27;;;;;;;19.20;9.23;;;;;;;-144.73;100.00;54586.28;4983004;28;20041;-68
2023/10/13 11:30:56;;;;;;;18.73;8.88;;;;;;;-144.73;100.00;54588.31;4970857;28;20499;-69
2023/10/13 11:33:26;;;;;;;20.40;8.95;;;;;;;-144.73;100.00;54617.06;4973075;28;20072;-69
2023/10/13 11:41:18;;;;;;;18.75;7.57;;;;;;;-144.73;100.00;54608.84;4996254;28;20048;-69
2023/10/13 11:51:39;;;;;;;22.00;7.70;;;;;;;-144.73;100.00;54612.97;4977317;28;20082;-69
2023/10/13 11:54:04;;;;;;;20.35;7.18;;;;;;;-144.73;100.00;54580.13;4974777;28;20027;-69
2023/10/13 11:56:30;;;;;;;20.13;7.07;;;;;;;-144.73;100.00;54567.81;4977923;28;20027;-68
2023/10/13 11:59:01;;;;;;;23.13;7.20;;;;;;;-144.73;100.00;54571.91;4991002;28;20026;-69
2023/10/13 12:10:15;;;;;;;26.65;8.15;;;;;;;-144.73;100.00;54596.53;4984101;28;20362;-69
2023/10/13 12:12:42;;;;;;;31.02;8.93;;;;;;;-144.73;100.00;54588.31;4987180;28;20030;-69
2023/10/13 12:15:25;;;;;;;26.90;7.55;;;;;;;-144.73;100.00;54573.97;4960693;28;20110;-68
2023/10/13 12:17:51;;;;;;;25.88;7.53;;;;;;;-144.73;100.00;54588.31;4959962;28;20026;-69
2023/10/13 12:20:32;;;;;;;13.60;6.00;;;;;;;-144.73;100.00;54580.13;4985863;28;20036;-69
2023/10/13 12:23:09;;;;;;;20.23;6.57;;;;;;;-144.73;100.00;54621.16;4980833;28;20022;-69
2023/10/13 12:25:44;;;;;;;24.25;6.30;;;;;;;-144.73;100.00;54596.53;4977892;28;20270;-69
2023/10/13 12:28:18;;;;;;;36.20;7.10;;;;;;;-144.73;100.00;54571.91;4973126;28;20019;-69
2023/10/13 12:30:54;;;;;;;18.00;6.10;;;;;;;-144.73;100.00;54592.44;4961363;28;20043;-69
2023/10/13 12:33:27;;;;;;;27.85;7.70;;;;;;;-144.73;100.00;54592.44;4968946;28;20014;-68
2023/10/13 12:36:26;;;;;;;34.00;7.53;;;;;;;-144.73;100.00;54586.28;4968728;28;20111;-69
2023/10/13 12:48:56;;;;;;;14.63;5.60;;;;;;;-144.73;100.00;54567.81;4972981;28;20388;-69
2023/10/13 12:50:13;;;;;;;24.30;6.82;;;;;;;-144.73;100.00;54551.38;4973206;28;20092;-69
2023/10/13 12:52:39;;;;;;;20.13;6.50;;;;;;;-144.73;100.00;54580.13;4960769;28;20050;-69
2023/10/13 12:55:09;;;;;;;17.60;6.20;;;;;;;-144.73;100.00;54625.28;4987089;28;20069;-69
2023/10/13 12:57:42;;;;;;;24.17;6.45;;;;;;;-144.73;100.00;54555.47;4975274;28;20030;-69
2023/10/13 13:00:16;;;;;;;37.72;6.53;;;;;;;-144.73;100.00;54588.31;4975812;28;20027;-69
2023/10/13 13:02:42;;;;;;;27.02;6.43;;;;;;;-144.73;100.00;54604.75;4973961;28;20018;-69
2023/10/13 13:05:11;;;;;;;22.30;6.25;;;;;;;-144.73;100.00;54584.22;4973160;28;20033;-69
2023/10/13 13:07:47;;;;;;;21.40;6.28;;;;;;;-144.73;100.00;54576.00;4978221;28;20064;-70
2023/10/13 13:10:14;;;;;;;23.90;6.93;;;;;;;-144.73;100.00;54555.47;4979058;28;20034;-69
2023/10/13 13:12:42;;;;;;;23.95;6.60;;;;;;;-144.73;100.00;54586.28;4970585;28;20037;-69
2023/10/13 13:15:08;;;;;;;33.97;7.28;;;;;;;-144.73;100.00;54547.28;4961418;28;20042;-69
2023/10/13 13:17:38;;;;;;;26.08;7.03;;;;;;;-144.73;100.00;54584.22;4994478;28;20045;-69
2023/10/13 13:20:11;;;;;;;21.83;6.75;;;;;;;-144.73;100.00;54571.91;4982351;28;20069;-69
2023/10/13 13:22:40;;;;;;;20.08;6.50;;;;;;;-144.73;100.00;54551.38;4985989;28;20067;-69
2023/10/13 13:25:08;;;;;;;31.05;7.82;;;;;;;-144.73;100.00;54610.91;4978997;28;20570;-69
2023/10/13 13:27:34;;;;;;;31.73;8.02;;;;;;;-144.73;100.00;54565.75;4984809;28;20034;-69
2023/10/13 13:30:00;;;;;;;22.17;6.85;;;;;;;-144.73;100.00;54592.44;4973863;28;20043;-69
2023/10/13 13:32:28;;;;;;;20.33;7.90;;;;;;;-144.73;100.00;54551.38;4982454;28;20082;-69
2023/10/13 13:35:15;;;;;;;32.60;6.95;;;;;;;-144.73;100.00;54573.97;4979447;28;20038;-69
2023/10/13 13:37:39;;;;;;;29.60;6.82;;;;;;;-144.73;100.00;54543.16;4976459;28;20066;-69
2023/10/13 13:40:15;;;;;;;24.25;6.63;;;;;;;-144.73;100.00;54545.22;4973825;28;20072;-69
2023/10/13 13:42:42;;;;;;;27.70;7.25;;;;;;;-144.73;100.00;54559.59;4963134;28;20466;-68
2023/10/13 13:45:21;;;;;;;22.52;6.97;;;;;;;-144.73;100.00;54567.81;4971365;28;20039;-68
2023/10/13 13:47:46;;;;;;;24.15;6.85;;;;;;;-144.73;100.00;54573.97;4981239;28;20034;-69
2023/10/13 13:50:17;;;;;;;41.25;6.60;;;;;;;-144.73;100.00;54506.22;4982752;28;20043;-68
2023/10/13 13:52:48;;;;;;;34.85;7.25;;;;;;;-144.73;100.00;54563.69;4973162;28;20050;-69
2023/10/13 13:55:17;;;;;;;39.55;6.95;;;;;;;-144.73;100.00;54567.81;4958270;28;20088;-70
2023/10/13 13:57:43;;;;;;;30.15;7.03;;;;;;;-144.73;100.00;54580.13;4980766;28;20066;-69
2023/10/13 14:00:16;;;;;;;33.38;7.15;;;;;;;-144.73;100.00;54592.44;4974752;28;20038;-68
2023/10/13 14:02:47;;;;;;;28.95;7.32;;;;;;;-144.73;100.00;54571.91;5004975;28;20018;-69
2023/10/13 14:05:15;;;;;;;28.05;8.23;;;;;;;-144.73;100.00;54608.84;4993689;28;20038;-70
2023/10/13 14:07:45;;;;;;;26.38;7.22;;;;;;;-144.73;100.00;54571.91;4961522;28;20105;-69
2023/10/13 14:10:30;;;;;;;26.30;6.88;;;;;;;-144.73;100.00;54555.47;4964176;28;20042;-69
2023/10/13 14:13:06;;;;;;;24.42;7.40;;;;;;;-144.73;100.00;54596.53;4966754;28;20109;-69
2023/10/13 14:15:39;;;;;;;22.13;6.68;;;;;;;-144.73;100.00;54547.28;4971296;28;20038;-69
2023/10/13 14:18:06;;;;;;;22.42;6.65;;;;;;;-144.73;100.00;54551.38;4957195;28;20026;-68
2023/10/13 14:20:33;;;;;;;30.50;7.53;;;;;;;-144.73;100.00;54580.13;4958093;28;20034;-69
2023/10/13 14:22:58;;;;;;;25.52;7.35;;;;;;;-144.73;100.00;54580.13;4965943;28;20026;-70
2023/10/13 14:25:28;;;;;;;24.15;6.78;;;;;;;-144.73;100.00;54565.75;4978164;28;20045;-68
2023/10/13 14:27:53;;;;;;;22.15;7.03;;;;;;;-144.73;100.00;54567.81;4964761;28;20022;-68
2023/10/13 14:30:19;;;;;;;29.02;8.68;;;;;;;-144.73;100.00;54547.28;4979455;28;20031;-70
2023/10/13 14:32:45;;;;;;;31.08;8.40;;;;;;;-144.73;100.00;54592.44;4957202;28;20034;-67
2023/10/13 14:35:14;;;;;;;32.78;7.90;;;;;;;-144.73;100.00;54502.13;4994327;28;20050;-68
2023/10/13 14:37:40;;;;;;;20.48;7.43;;;;;;;-144.73;100.00;54561.63;4968921;28;20031;-69
2023/10/13 14:40:12;;;;;;;23.45;7.38;;;;;;;-144.73;100.00;54545.22;4959638;28;20027;-69
2023/10/13 14:42:40;;;;;;;23.58;7.13;;;;;;;-144.73;100.00;54567.81;4961251;28;20054;-69
2023/10/13 14:45:16;;;;;;;38.92;8.35;;;;;;;-144.73;100.00;54571.91;4974809;28;20035;-69
2023/10/13 14:47:42;;;;;;;33.17;8.18;;;;;;;-144.73;100.00;54580.13;5015451;28;20033;-68
2023/10/13 14:50:17;;;;;;;27.85;7.43;;;;;;;-144.73;100.00;54547.28;4962730;28;20038;-68
2023/10/13 14:52:43;;;;;;;30.38;8.65;;;;;;;-144.73;100.00;54604.75;5036596;28;20027;-69